sensor_id;sensor_type;location;lat;lon;timestamp;P1;durP1;ratioP1;P2;durP2;ratioP2
20597;SDS011;10457;48.770;11.446;2022-09-25T00:00:01;45.53;;;31.73;;
20597;SDS011;10457;48.770;11.446;2022-09-25T00:05:27;50.87;;;33.93;;
20597;SDS011;10457;48.770;11.446;2022-09-25T00:10:49;65.33;;;34.93;;
20597;SDS011;10457;48.770;11.446;2022-09-25T00:16:12;46.87;;;33.13;;
20597;SDS011;10457;48.770;11.446;2022-09-25T00:21:36;47.47;;;33.83;;
20597;SDS011;10457;48.770;11.446;2022-09-25T00:26:58;49.13;;;32.53;;
20597;SDS011;10457;48.770;11.446;2022-09-25T00:32:20;59.53;;;33.27;;
20597;SDS011;10457;48.770;11.446;2022-09-25T00:37:43;91.27;;;35.70;;
20597;SDS011;10457;48.770;11.446;2022-09-25T00:43:05;54.83;;;32.60;;
20597;SDS011;10457;48.770;11.446;2022-09-25T00:48:32;46.70;;;32.60;;
20597;SDS011;10457;48.770;11.446;2022-09-25T00:53:55;69.90;;;34.47;;
20597;SDS011;10457;48.770;11.446;2022-09-25T00:59:26;55.60;;;34.63;;
20597;SDS011;10457;48.770;11.446;2022-09-25T01:04:53;50.33;;;32.03;;
20597;SDS011;10457;48.770;11.446;2022-09-25T01:10:19;50.83;;;33.13;;
20597;SDS011;10457;48.770;11.446;2022-09-25T01:15:42;49.50;;;32.33;;
20597;SDS011;10457;48.770;11.446;2022-09-25T01:21:13;64.60;;;31.67;;
20597;SDS011;10457;48.770;11.446;2022-09-25T01:32:55;48.87;;;32.00;;
20597;SDS011;10457;48.770;11.446;2022-09-25T01:38:22;52.03;;;30.43;;
20597;SDS011;10457;48.770;11.446;2022-09-25T01:43:50;39.77;;;29.33;;
20597;SDS011;10457;48.770;11.446;2022-09-25T01:49:21;39.83;;;29.63;;
20597;SDS011;10457;48.770;11.446;2022-09-25T01:54:52;36.93;;;28.33;;
20597;SDS011;10457;48.770;11.446;2022-09-25T02:00:22;37.77;;;28.37;;
20597;SDS011;10457;48.770;11.446;2022-09-25T02:05:47;36.57;;;28.33;;
20597;SDS011;10457;48.770;11.446;2022-09-25T02:11:11;37.67;;;28.93;;
20597;SDS011;10457;48.770;11.446;2022-09-25T02:16:34;36.13;;;27.53;;
20597;SDS011;10457;48.770;11.446;2022-09-25T02:22:04;37.30;;;26.73;;
20597;SDS011;10457;48.770;11.446;2022-09-25T02:27:31;46.30;;;29.00;;
20597;SDS011;10457;48.770;11.446;2022-09-25T02:32:53;42.70;;;29.30;;
20597;SDS011;10457;48.770;11.446;2022-09-25T02:38:17;42.03;;;25.87;;
20597;SDS011;10457;48.770;11.446;2022-09-25T02:43:42;42.07;;;27.53;;
20597;SDS011;10457;48.770;11.446;2022-09-25T02:49:14;37.57;;;25.90;;
20597;SDS011;10457;48.770;11.446;2022-09-25T02:55:10;60.83;;;28.27;;
20597;SDS011;10457;48.770;11.446;2022-09-25T03:00:37;48.10;;;26.27;;
20597;SDS011;10457;48.770;11.446;2022-09-25T03:06:01;51.07;;;25.23;;
20597;SDS011;10457;48.770;11.446;2022-09-25T03:11:26;51.07;;;23.13;;
20597;SDS011;10457;48.770;11.446;2022-09-25T03:16:49;48.90;;;25.63;;
20597;SDS011;10457;48.770;11.446;2022-09-25T03:22:14;39.53;;;26.50;;
20597;SDS011;10457;48.770;11.446;2022-09-25T03:27:41;34.83;;;23.43;;
20597;SDS011;10457;48.770;11.446;2022-09-25T03:33:02;34.97;;;24.77;;
20597;SDS011;10457;48.770;11.446;2022-09-25T03:38:24;32.20;;;24.10;;
20597;SDS011;10457;48.770;11.446;2022-09-25T03:43:47;40.43;;;25.77;;
20597;SDS011;10457;48.770;11.446;2022-09-25T03:49:10;40.37;;;25.90;;
20597;SDS011;10457;48.770;11.446;2022-09-25T03:54:32;33.30;;;23.57;;
20597;SDS011;10457;48.770;11.446;2022-09-25T03:59:55;35.13;;;26.07;;
20597;SDS011;10457;48.770;11.446;2022-09-25T04:05:19;33.17;;;24.20;;
20597;SDS011;10457;48.770;11.446;2022-09-25T04:10:41;33.00;;;23.80;;
20597;SDS011;10457;48.770;11.446;2022-09-25T04:16:04;32.43;;;23.40;;
20597;SDS011;10457;48.770;11.446;2022-09-25T04:21:27;34.30;;;24.83;;
20597;SDS011;10457;48.770;11.446;2022-09-25T04:26:49;38.83;;;24.87;;
20597;SDS011;10457;48.770;11.446;2022-09-25T04:32:13;41.10;;;23.27;;
20597;SDS011;10457;48.770;11.446;2022-09-25T04:37:53;49.67;;;24.80;;
20597;SDS011;10457;48.770;11.446;2022-09-25T04:43:15;45.20;;;25.07;;
20597;SDS011;10457;48.770;11.446;2022-09-25T04:48:38;35.77;;;23.37;;
20597;SDS011;10457;48.770;11.446;2022-09-25T04:54:02;43.53;;;27.10;;
20597;SDS011;10457;48.770;11.446;2022-09-25T04:59:24;42.17;;;24.83;;
20597;SDS011;10457;48.770;11.446;2022-09-25T05:04:47;44.83;;;25.83;;
20597;SDS011;10457;48.770;11.446;2022-09-25T05:10:08;37.47;;;25.17;;
20597;SDS011;10457;48.770;11.446;2022-09-25T05:15:33;40.47;;;25.07;;
20597;SDS011;10457;48.770;11.446;2022-09-25T05:20:55;51.77;;;25.43;;
20597;SDS011;10457;48.770;11.446;2022-09-25T05:26:17;47.73;;;27.10;;
20597;SDS011;10457;48.770;11.446;2022-09-25T05:31:38;41.30;;;26.07;;
20597;SDS011;10457;48.770;11.446;2022-09-25T05:37:03;40.43;;;26.40;;
20597;SDS011;10457;48.770;11.446;2022-09-25T05:42:24;46.20;;;26.23;;
20597;SDS011;10457;48.770;11.446;2022-09-25T05:47:46;46.50;;;26.40;;
20597;SDS011;10457;48.770;11.446;2022-09-25T05:53:09;45.00;;;26.13;;
20597;SDS011;10457;48.770;11.446;2022-09-25T05:58:31;48.33;;;25.57;;
20597;SDS011;10457;48.770;11.446;2022-09-25T06:03:54;49.07;;;26.60;;
20597;SDS011;10457;48.770;11.446;2022-09-25T06:09:17;56.27;;;24.70;;
20597;SDS011;10457;48.770;11.446;2022-09-25T06:14:38;43.33;;;25.40;;
20597;SDS011;10457;48.770;11.446;2022-09-25T06:20:00;46.67;;;25.23;;
20597;SDS011;10457;48.770;11.446;2022-09-25T06:25:23;43.97;;;24.30;;
20597;SDS011;10457;48.770;11.446;2022-09-25T06:30:48;47.63;;;22.80;;
20597;SDS011;10457;48.770;11.446;2022-09-25T06:36:10;44.37;;;23.63;;
20597;SDS011;10457;48.770;11.446;2022-09-25T06:41:33;41.10;;;23.00;;
20597;SDS011;10457;48.770;11.446;2022-09-25T06:46:55;47.67;;;23.57;;
20597;SDS011;10457;48.770;11.446;2022-09-25T06:52:18;48.03;;;23.93;;
20597;SDS011;10457;48.770;11.446;2022-09-25T06:57:41;49.83;;;24.38;;
20597;SDS011;10457;48.770;11.446;2022-09-25T07:03:05;47.40;;;24.50;;
20597;SDS011;10457;48.770;11.446;2022-09-25T07:08:44;48.80;;;24.83;;
20597;SDS011;10457;48.770;11.446;2022-09-25T07:14:09;44.77;;;26.10;;
20597;SDS011;10457;48.770;11.446;2022-09-25T07:19:31;48.63;;;25.57;;
20597;SDS011;10457;48.770;11.446;2022-09-25T07:24:52;45.07;;;25.47;;
20597;SDS011;10457;48.770;11.446;2022-09-25T07:30:15;45.80;;;21.80;;
20597;SDS011;10457;48.770;11.446;2022-09-25T07:35:37;46.97;;;24.47;;
20597;SDS011;10457;48.770;11.446;2022-09-25T07:41:01;45.17;;;22.90;;
20597;SDS011;10457;48.770;11.446;2022-09-25T07:46:25;42.10;;;20.67;;
20597;SDS011;10457;48.770;11.446;2022-09-25T07:51:52;42.40;;;22.77;;
20597;SDS011;10457;48.770;11.446;2022-09-25T07:57:14;46.30;;;23.33;;
20597;SDS011;10457;48.770;11.446;2022-09-25T08:02:40;39.83;;;23.17;;
20597;SDS011;10457;48.770;11.446;2022-09-25T08:08:01;47.78;;;21.85;;
20597;SDS011;10457;48.770;11.446;2022-09-25T08:13:23;40.70;;;20.98;;
20597;SDS011;10457;48.770;11.446;2022-09-25T08:18:46;41.92;;;22.50;;
20597;SDS011;10457;48.770;11.446;2022-09-25T08:24:08;37.30;;;22.90;;
20597;SDS011;10457;48.770;11.446;2022-09-25T08:29:30;41.65;;;22.83;;
20597;SDS011;10457;48.770;11.446;2022-09-25T08:34:54;39.80;;;24.10;;
20597;SDS011;10457;48.770;11.446;2022-09-25T08:40:16;45.55;;;24.40;;
20597;SDS011;10457;48.770;11.446;2022-09-25T08:45:41;42.08;;;22.67;;
20597;SDS011;10457;48.770;11.446;2022-09-25T08:51:24;47.00;;;25.55;;
20597;SDS011;10457;48.770;11.446;2022-09-25T08:56:47;42.08;;;22.80;;
20597;SDS011;10457;48.770;11.446;2022-09-25T09:02:11;43.67;;;22.52;;
20597;SDS011;10457;48.770;11.446;2022-09-25T09:07:41;37.67;;;20.73;;
20597;SDS011;10457;48.770;11.446;2022-09-25T09:13:12;42.83;;;22.37;;
20597;SDS011;10457;48.770;11.446;2022-09-25T09:18:38;38.22;;;22.13;;
20597;SDS011;10457;48.770;11.446;2022-09-25T09:24:06;39.15;;;21.38;;
20597;SDS011;10457;48.770;11.446;2022-09-25T09:29:38;36.47;;;21.17;;
20597;SDS011;10457;48.770;11.446;2022-09-25T09:35:14;40.38;;;22.80;;
20597;SDS011;10457;48.770;11.446;2022-09-25T09:40:57;34.90;;;20.63;;
20597;SDS011;10457;48.770;11.446;2022-09-25T09:46:33;35.22;;;21.60;;
20597;SDS011;10457;48.770;11.446;2022-09-25T09:52:06;36.92;;;22.38;;
20597;SDS011;10457;48.770;11.446;2022-09-25T09:57:32;38.92;;;21.70;;
20597;SDS011;10457;48.770;11.446;2022-09-25T10:03:03;44.75;;;24.25;;
20597;SDS011;10457;48.770;11.446;2022-09-25T10:08:32;60.35;;;27.27;;
20597;SDS011;10457;48.770;11.446;2022-09-25T10:13:56;69.68;;;30.00;;
20597;SDS011;10457;48.770;11.446;2022-09-25T10:19:19;67.83;;;30.80;;
20597;SDS011;10457;48.770;11.446;2022-09-25T10:24:45;65.93;;;31.42;;
20597;SDS011;10457;48.770;11.446;2022-09-25T10:30:18;58.55;;;28.33;;
20597;SDS011;10457;48.770;11.446;2022-09-25T10:35:42;47.72;;;24.33;;
20597;SDS011;10457;48.770;11.446;2022-09-25T10:41:05;39.55;;;22.05;;
20597;SDS011;10457;48.770;11.446;2022-09-25T10:46:32;40.05;;;23.08;;
20597;SDS011;10457;48.770;11.446;2022-09-25T10:52:13;43.08;;;25.73;;
20597;SDS011;10457;48.770;11.446;2022-09-25T10:57:37;44.53;;;25.45;;
20597;SDS011;10457;48.770;11.446;2022-09-25T11:03:03;37.90;;;21.45;;
20597;SDS011;10457;48.770;11.446;2022-09-25T11:08:26;41.50;;;24.23;;
20597;SDS011;10457;48.770;11.446;2022-09-25T11:13:50;33.90;;;21.52;;
20597;SDS011;10457;48.770;11.446;2022-09-25T11:19:18;32.63;;;20.80;;
20597;SDS011;10457;48.770;11.446;2022-09-25T11:24:56;32.58;;;20.63;;
20597;SDS011;10457;48.770;11.446;2022-09-25T11:30:25;32.28;;;20.10;;
20597;SDS011;10457;48.770;11.446;2022-09-25T11:36:02;34.22;;;18.77;;
20597;SDS011;10457;48.770;11.446;2022-09-25T11:41:31;34.25;;;21.85;;
20597;SDS011;10457;48.770;11.446;2022-09-25T11:47:00;30.95;;;20.00;;
20597;SDS011;10457;48.770;11.446;2022-09-25T11:52:30;26.50;;;17.27;;
20597;SDS011;10457;48.770;11.446;2022-09-25T11:58:13;29.02;;;16.45;;
20597;SDS011;10457;48.770;11.446;2022-09-25T12:04:12;25.90;;;15.85;;
20597;SDS011;10457;48.770;11.446;2022-09-25T12:10:09;27.77;;;17.88;;
20597;SDS011;10457;48.770;11.446;2022-09-25T12:15:56;19.05;;;12.93;;
20597;SDS011;10457;48.770;11.446;2022-09-25T12:21:32;20.60;;;13.27;;
20597;SDS011;10457;48.770;11.446;2022-09-25T12:27:05;18.77;;;11.40;;
20597;SDS011;10457;48.770;11.446;2022-09-25T12:32:38;16.33;;;11.18;;
20597;SDS011;10457;48.770;11.446;2022-09-25T12:38:21;12.77;;;9.75;;
20597;SDS011;10457;48.770;11.446;2022-09-25T12:43:55;20.52;;;12.70;;
20597;SDS011;10457;48.770;11.446;2022-09-25T12:49:25;18.25;;;10.48;;
20597;SDS011;10457;48.770;11.446;2022-09-25T12:54:55;14.57;;;10.00;;
20597;SDS011;10457;48.770;11.446;2022-09-25T13:00:26;14.95;;;10.45;;
20597;SDS011;10457;48.770;11.446;2022-09-25T13:05:52;16.88;;;9.40;;
20597;SDS011;10457;48.770;11.446;2022-09-25T13:11:26;14.25;;;10.52;;
20597;SDS011;10457;48.770;11.446;2022-09-25T13:16:59;12.30;;;8.77;;
20597;SDS011;10457;48.770;11.446;2022-09-25T13:22:22;14.93;;;9.52;;
20597;SDS011;10457;48.770;11.446;2022-09-25T13:27:45;11.70;;;8.40;;
20597;SDS011;10457;48.770;11.446;2022-09-25T13:33:14;11.10;;;9.15;;
20597;SDS011;10457;48.770;11.446;2022-09-25T13:38:43;12.18;;;8.75;;
20597;SDS011;10457;48.770;11.446;2022-09-25T13:44:36;11.40;;;7.90;;
20597;SDS011;10457;48.770;11.446;2022-09-25T13:50:21;9.07;;;7.32;;
20597;SDS011;10457;48.770;11.446;2022-09-25T13:56:12;10.27;;;7.38;;
20597;SDS011;10457;48.770;11.446;2022-09-25T14:01:53;9.98;;;7.72;;
20597;SDS011;10457;48.770;11.446;2022-09-25T14:07:20;9.23;;;7.40;;
20597;SDS011;10457;48.770;11.446;2022-09-25T14:12:45;11.32;;;8.18;;
20597;SDS011;10457;48.770;11.446;2022-09-25T14:18:12;15.75;;;9.40;;
20597;SDS011;10457;48.770;11.446;2022-09-25T14:23:47;12.15;;;8.32;;
20597;SDS011;10457;48.770;11.446;2022-09-25T14:29:13;13.68;;;10.00;;
20597;SDS011;10457;48.770;11.446;2022-09-25T14:34:48;13.25;;;8.80;;
20597;SDS011;10457;48.770;11.446;2022-09-25T14:40:26;17.77;;;11.63;;
20597;SDS011;10457;48.770;11.446;2022-09-25T14:45:59;17.92;;;11.15;;
20597;SDS011;10457;48.770;11.446;2022-09-25T14:51:24;17.63;;;10.82;;
20597;SDS011;10457;48.770;11.446;2022-09-25T14:56:56;16.42;;;11.07;;
20597;SDS011;10457;48.770;11.446;2022-09-25T15:02:19;16.55;;;11.50;;
20597;SDS011;10457;48.770;11.446;2022-09-25T15:07:44;18.92;;;12.27;;
20597;SDS011;10457;48.770;11.446;2022-09-25T15:13:11;14.48;;;10.43;;
20597;SDS011;10457;48.770;11.446;2022-09-25T15:18:35;12.77;;;8.20;;
20597;SDS011;10457;48.770;11.446;2022-09-25T15:24:00;13.23;;;8.05;;
20597;SDS011;10457;48.770;11.446;2022-09-25T15:29:26;12.30;;;8.07;;
20597;SDS011;10457;48.770;11.446;2022-09-25T15:34:49;11.85;;;8.63;;
20597;SDS011;10457;48.770;11.446;2022-09-25T15:40:16;14.15;;;8.30;;
20597;SDS011;10457;48.770;11.446;2022-09-25T15:45:46;10.80;;;8.07;;
20597;SDS011;10457;48.770;11.446;2022-09-25T15:51:16;8.05;;;6.05;;
20597;SDS011;10457;48.770;11.446;2022-09-25T15:56:43;10.82;;;7.35;;
20597;SDS011;10457;48.770;11.446;2022-09-25T16:02:11;10.68;;;7.65;;
20597;SDS011;10457;48.770;11.446;2022-09-25T16:13:48;10.82;;;7.35;;
20597;SDS011;10457;48.770;11.446;2022-09-25T16:19:20;12.02;;;8.93;;
20597;SDS011;10457;48.770;11.446;2022-09-25T16:24:52;11.02;;;6.90;;
20597;SDS011;10457;48.770;11.446;2022-09-25T16:30:15;9.15;;;7.30;;
20597;SDS011;10457;48.770;11.446;2022-09-25T16:35:42;11.45;;;6.78;;
20597;SDS011;10457;48.770;11.446;2022-09-25T16:41:05;9.55;;;7.55;;
20597;SDS011;10457;48.770;11.446;2022-09-25T16:46:39;10.18;;;6.88;;
20597;SDS011;10457;48.770;11.446;2022-09-25T16:52:04;14.60;;;9.43;;
20597;SDS011;10457;48.770;11.446;2022-09-25T16:57:27;16.80;;;11.65;;
20597;SDS011;10457;48.770;11.446;2022-09-25T17:02:51;16.52;;;11.35;;
20597;SDS011;10457;48.770;11.446;2022-09-25T17:08:15;15.88;;;10.23;;
20597;SDS011;10457;48.770;11.446;2022-09-25T17:13:39;16.95;;;10.98;;
20597;SDS011;10457;48.770;11.446;2022-09-25T17:19:04;16.30;;;12.00;;
20597;SDS011;10457;48.770;11.446;2022-09-25T17:24:31;17.33;;;9.90;;
20597;SDS011;10457;48.770;11.446;2022-09-25T17:29:52;15.70;;;12.50;;
20597;SDS011;10457;48.770;11.446;2022-09-25T17:35:20;17.20;;;9.95;;
20597;SDS011;10457;48.770;11.446;2022-09-25T17:40:52;12.80;;;10.00;;
20597;SDS011;10457;48.770;11.446;2022-09-25T17:46:17;11.52;;;8.07;;
20597;SDS011;10457;48.770;11.446;2022-09-25T17:51:39;12.00;;;9.18;;
20597;SDS011;10457;48.770;11.446;2022-09-25T17:57:02;13.35;;;9.20;;
20597;SDS011;10457;48.770;11.446;2022-09-25T18:02:24;21.00;;;11.75;;
20597;SDS011;10457;48.770;11.446;2022-09-25T18:07:48;21.88;;;14.32;;
20597;SDS011;10457;48.770;11.446;2022-09-25T18:13:12;17.02;;;11.05;;
20597;SDS011;10457;48.770;11.446;2022-09-25T18:18:38;14.80;;;10.43;;
20597;SDS011;10457;48.770;11.446;2022-09-25T18:24:17;17.30;;;11.23;;
20597;SDS011;10457;48.770;11.446;2022-09-25T18:29:40;14.40;;;10.10;;
20597;SDS011;10457;48.770;11.446;2022-09-25T18:35:03;20.55;;;13.07;;
20597;SDS011;10457;48.770;11.446;2022-09-25T18:40:26;16.67;;;11.27;;
20597;SDS011;10457;48.770;11.446;2022-09-25T18:45:49;12.70;;;9.77;;
20597;SDS011;10457;48.770;11.446;2022-09-25T18:51:10;13.02;;;9.85;;
20597;SDS011;10457;48.770;11.446;2022-09-25T18:56:32;21.83;;;15.90;;
20597;SDS011;10457;48.770;11.446;2022-09-25T19:01:56;16.85;;;11.27;;
20597;SDS011;10457;48.770;11.446;2022-09-25T19:07:18;15.60;;;11.57;;
20597;SDS011;10457;48.770;11.446;2022-09-25T19:12:45;12.82;;;10.38;;
20597;SDS011;10457;48.770;11.446;2022-09-25T19:18:08;14.95;;;10.88;;
20597;SDS011;10457;48.770;11.446;2022-09-25T19:23:33;15.38;;;9.65;;
20597;SDS011;10457;48.770;11.446;2022-09-25T19:29:20;15.32;;;10.05;;
20597;SDS011;10457;48.770;11.446;2022-09-25T19:34:43;12.95;;;8.95;;
20597;SDS011;10457;48.770;11.446;2022-09-25T19:40:05;17.05;;;10.35;;
20597;SDS011;10457;48.770;11.446;2022-09-25T19:45:48;14.65;;;9.52;;
20597;SDS011;10457;48.770;11.446;2022-09-25T19:51:12;17.33;;;9.80;;
20597;SDS011;10457;48.770;11.446;2022-09-25T19:56:35;14.68;;;10.18;;
20597;SDS011;10457;48.770;11.446;2022-09-25T20:01:58;19.67;;;9.30;;
20597;SDS011;10457;48.770;11.446;2022-09-25T20:07:21;12.07;;;8.38;;
20597;SDS011;10457;48.770;11.446;2022-09-25T20:12:42;13.20;;;8.27;;
20597;SDS011;10457;48.770;11.446;2022-09-25T20:18:04;12.20;;;7.82;;
20597;SDS011;10457;48.770;11.446;2022-09-25T20:23:27;12.83;;;9.17;;
20597;SDS011;10457;48.770;11.446;2022-09-25T20:28:50;13.88;;;9.38;;
20597;SDS011;10457;48.770;11.446;2022-09-25T20:34:16;11.33;;;8.53;;
20597;SDS011;10457;48.770;11.446;2022-09-25T20:39:42;11.90;;;7.87;;
20597;SDS011;10457;48.770;11.446;2022-09-25T20:45:06;13.85;;;9.68;;
20597;SDS011;10457;48.770;11.446;2022-09-25T20:50:29;14.20;;;9.70;;
20597;SDS011;10457;48.770;11.446;2022-09-25T20:55:54;14.37;;;8.77;;
20597;SDS011;10457;48.770;11.446;2022-09-25T21:01:17;11.97;;;8.40;;
20597;SDS011;10457;48.770;11.446;2022-09-25T21:06:41;12.18;;;8.82;;
20597;SDS011;10457;48.770;11.446;2022-09-25T21:12:04;12.23;;;9.37;;
20597;SDS011;10457;48.770;11.446;2022-09-25T21:17:26;16.30;;;9.80;;
20597;SDS011;10457;48.770;11.446;2022-09-25T21:22:48;11.83;;;9.37;;
20597;SDS011;10457;48.770;11.446;2022-09-25T21:28:12;15.17;;;10.37;;
20597;SDS011;10457;48.770;11.446;2022-09-25T21:33:33;12.00;;;9.57;;
20597;SDS011;10457;48.770;11.446;2022-09-25T21:38:55;10.63;;;8.67;;
20597;SDS011;10457;48.770;11.446;2022-09-25T21:44:19;17.17;;;9.60;;
20597;SDS011;10457;48.770;11.446;2022-09-25T21:49:43;17.23;;;10.10;;
20597;SDS011;10457;48.770;11.446;2022-09-25T21:55:06;13.73;;;9.07;;
20597;SDS011;10457;48.770;11.446;2022-09-25T22:00:30;13.40;;;9.23;;
20597;SDS011;10457;48.770;11.446;2022-09-25T22:05:56;12.37;;;8.77;;
20597;SDS011;10457;48.770;11.446;2022-09-25T22:11:18;13.57;;;8.43;;
20597;SDS011;10457;48.770;11.446;2022-09-25T22:16:42;10.13;;;8.43;;
20597;SDS011;10457;48.770;11.446;2022-09-25T22:22:05;12.37;;;7.70;;
20597;SDS011;10457;48.770;11.446;2022-09-25T22:27:27;11.53;;;7.80;;
20597;SDS011;10457;48.770;11.446;2022-09-25T22:32:59;10.87;;;8.30;;
20597;SDS011;10457;48.770;11.446;2022-09-25T22:38:20;11.33;;;8.33;;
20597;SDS011;10457;48.770;11.446;2022-09-25T22:43:41;13.83;;;7.13;;
20597;SDS011;10457;48.770;11.446;2022-09-25T22:49:04;8.47;;;6.77;;
20597;SDS011;10457;48.770;11.446;2022-09-25T22:54:26;10.20;;;6.70;;
20597;SDS011;10457;48.770;11.446;2022-09-25T22:59:48;10.93;;;7.73;;
20597;SDS011;10457;48.770;11.446;2022-09-25T23:05:11;14.37;;;8.03;;
20597;SDS011;10457;48.770;11.446;2022-09-25T23:10:32;9.87;;;6.93;;
20597;SDS011;10457;48.770;11.446;2022-09-25T23:15:54;11.60;;;8.07;;
20597;SDS011;10457;48.770;11.446;2022-09-25T23:21:17;10.40;;;6.60;;
20597;SDS011;10457;48.770;11.446;2022-09-25T23:26:38;9.07;;;7.23;;
20597;SDS011;10457;48.770;11.446;2022-09-25T23:32:00;9.80;;;6.97;;
20597;SDS011;10457;48.770;11.446;2022-09-25T23:37:28;10.57;;;6.53;;
20597;SDS011;10457;48.770;11.446;2022-09-25T23:42:49;9.87;;;7.03;;
20597;SDS011;10457;48.770;11.446;2022-09-25T23:48:11;10.43;;;7.97;;
20597;SDS011;10457;48.770;11.446;2022-09-25T23:53:35;10.77;;;7.00;;
20597;SDS011;10457;48.770;11.446;2022-09-25T23:58:59;10.20;;;7.03;;
